Portada
METAR-TAF:

METAR-TAF

Aeroports :

Lar, Iran

latitud: 27-40-26N, longitud: 054-22-53E, altitud: 792 m

Observació

L'informe es va fer fa 1 hora i 47 minuts, a les 21:00 UTC
Vent calma
Temperatura 8°C
Humitat 34%
Pressió 1018 hPa
Visibilitat 10 km o més
sense núvols per sota de 1500 mi sense presència de cumulonimbus.

METAR: OISL 132100Z 00000KT CAVOK 08/M07 Q1018

Hora: 02:17 (22:47 UTC)

Pronòstic

L'informe es va fer fa 5 hores i 17 minuts, a les 17:30 UTC
Pronòstic vàlid del 13 a les 18 UTC al 14 a les 24 UTC
Vent 6 kt amb direcció variable
Visibilitat: 8000 m

TAF: OISL 131730Z 1318/1424 VRB06KT 8000 NSC

Observacions i pronòstics meteorològics de més de 4000 aeroports (METAR i TAF).

Les estacions disponibles són els punts grocs i vermells al mapa.

Posi el ratolí al punt desitjat per veure el nom de l'estació.

Feu clic per veure les observacions i els pronòstics meteorològics.

Per canviar el mapa: feu clic els botons verds amb una creu de color negre per apropar; al botó verd amb un guió per allunyar la imatge; o en les fletxes verdes per a mapes adjacents.


METAR-TAF: